createdAt,value
2018-11-25T00:02:47.406Z,14.70
2018-11-25T00:07:50.767Z,14.73
2018-11-25T00:12:54.231Z,11.87
2018-11-25T00:17:57.722Z,13.53
2018-11-25T00:23:01.123Z,12.63
2018-11-25T00:28:04.648Z,14.00
2018-11-25T00:33:07.984Z,11.07
2018-11-25T00:38:11.358Z,11.67
2018-11-25T00:43:14.686Z,11.23
2018-11-25T00:48:18.387Z,11.83
2018-11-25T00:53:21.752Z,15.67
2018-11-25T00:58:25.096Z,14.43
2018-11-25T01:03:28.452Z,10.87
2018-11-25T01:08:31.879Z,13.33
2018-11-25T01:13:35.204Z,11.97
2018-11-25T01:18:38.552Z,12.50
2018-11-25T01:23:42.018Z,12.10
2018-11-25T01:28:45.390Z,13.90
2018-11-25T01:33:48.767Z,13.70
2018-11-25T01:38:52.146Z,12.13
2018-11-25T01:43:55.587Z,11.73
2018-11-25T01:48:58.900Z,11.57
2018-11-25T01:54:02.229Z,11.10
2018-11-25T01:59:05.750Z,11.37
2018-11-25T02:04:09.113Z,11.90
2018-11-25T02:09:12.628Z,12.23
2018-11-25T02:14:16.016Z,10.70
2018-11-25T02:19:19.462Z,11.40
2018-11-25T02:24:22.897Z,9.87
2018-11-25T02:29:26.413Z,11.97
2018-11-25T02:34:29.749Z,10.23
2018-11-25T02:39:33.252Z,9.50
2018-11-25T02:44:36.845Z,9.57
2018-11-25T02:49:40.219Z,9.70
2018-11-25T02:54:43.592Z,10.50
2018-11-25T02:59:46.996Z,10.30
2018-11-25T03:04:50.335Z,10.70
2018-11-25T03:09:53.688Z,11.33
2018-11-25T03:14:57.230Z,11.10
2018-11-25T03:20:00.582Z,10.03
2018-11-25T03:25:03.996Z,10.63
2018-11-25T03:30:10.188Z,10.93
2018-11-25T03:35:14.071Z,10.00
2018-11-25T03:40:19.857Z,10.72
2018-11-25T03:45:23.352Z,12.00
2018-11-25T03:50:26.700Z,9.87
2018-11-25T03:55:30.216Z,13.27
2018-11-25T04:00:33.595Z,10.37
2018-11-25T04:05:36.980Z,11.53
2018-11-25T04:10:40.395Z,12.13
2018-11-25T04:15:43.759Z,12.07
2018-11-25T04:20:47.167Z,11.77
2018-11-25T04:25:50.525Z,10.27
2018-11-25T04:30:53.915Z,9.20
2018-11-25T04:35:57.491Z,10.67
2018-11-25T04:41:00.829Z,9.53
2018-11-25T04:46:04.160Z,10.27
2018-11-25T04:51:07.607Z,10.27
2018-11-25T04:56:10.925Z,10.13
2018-11-25T05:01:14.410Z,11.53
2018-11-25T05:06:17.841Z,11.07
2018-11-25T05:11:21.216Z,10.10
2018-11-25T05:16:24.547Z,9.87
2018-11-25T05:21:27.872Z,10.97
2018-11-25T05:26:31.349Z,9.53
2018-11-25T05:31:34.680Z,9.07
2018-11-25T05:36:38.072Z,8.83
2018-11-25T05:41:41.475Z,8.63
2018-11-25T05:46:44.835Z,8.00
2018-11-25T05:51:48.212Z,7.60
2018-11-25T05:56:51.537Z,8.50
2018-11-25T06:01:55.208Z,8.43
2018-11-25T06:06:58.764Z,9.40
2018-11-25T06:12:02.376Z,9.67
2018-11-25T06:17:06.258Z,9.73
2018-11-25T06:22:09.821Z,10.17
2018-11-25T06:27:13.388Z,10.23
2018-11-25T06:32:17.008Z,9.17
2018-11-25T06:37:20.589Z,11.17
2018-11-25T06:42:24.168Z,13.47
2018-11-25T06:47:27.717Z,11.70
2018-11-25T06:52:31.442Z,8.53
2018-11-25T06:57:34.993Z,10.53
2018-11-25T07:02:38.600Z,11.43
2018-11-25T07:07:42.013Z,19.33
2018-11-25T07:12:45.545Z,9.93
2018-11-25T07:17:49.227Z,11.00
2018-11-25T07:22:54.126Z,9.97
2018-11-25T07:27:56.475Z,12.37
2018-11-25T07:33:00.239Z,11.67
2018-11-25T07:38:03.907Z,12.07
2018-11-25T07:43:07.432Z,11.67
2018-11-25T07:48:11.097Z,10.97
2018-11-25T07:53:14.521Z,9.23
2018-11-25T07:58:18.164Z,11.10
2018-11-25T08:03:21.776Z,14.20
2018-11-25T08:08:25.394Z,13.43
2018-11-25T08:13:28.984Z,14.83
2018-11-25T08:18:32.546Z,13.80
2018-11-25T08:23:36.696Z,17.33
2018-11-25T08:28:40.521Z,15.60
2018-11-25T08:33:44.120Z,13.97
2018-11-25T08:38:47.777Z,13.00
2018-11-25T08:43:51.561Z,14.27
2018-11-25T08:48:55.866Z,14.50
2018-11-25T08:53:59.356Z,14.37
2018-11-25T08:59:05.289Z,18.77
2018-11-25T09:04:08.937Z,15.73
2018-11-25T09:09:18.689Z,15.00
2018-11-25T09:14:22.659Z,14.73
2018-11-25T09:19:26.681Z,16.47
2018-11-25T09:24:30.517Z,16.37
2018-11-25T09:29:34.121Z,16.00
2018-11-25T09:34:37.645Z,16.37
2018-11-25T09:39:41.149Z,16.47
2018-11-25T09:44:44.671Z,16.73
2018-11-25T09:49:48.169Z,16.80
2018-11-25T09:54:51.535Z,17.57
2018-11-25T09:59:55.015Z,14.73
2018-11-25T10:04:59.574Z,15.60
2018-11-25T10:10:04.530Z,17.10
2018-11-25T10:15:09.443Z,19.40
2018-11-25T10:20:18.815Z,15.50
2018-11-25T10:25:22.241Z,16.63
2018-11-25T10:30:26.480Z,17.47
2018-11-25T10:35:29.828Z,16.60
2018-11-25T10:40:33.642Z,17.80
2018-11-25T10:45:37.140Z,19.53
2018-11-25T10:50:40.651Z,19.67
2018-11-25T10:55:44.375Z,15.67
2018-11-25T11:00:53.005Z,18.13
2018-11-25T11:06:01.849Z,16.37
2018-11-25T11:11:05.973Z,17.37
2018-11-25T11:16:09.604Z,16.03
2018-11-25T11:21:13.276Z,16.63
2018-11-25T11:26:26.743Z,15.70
2018-11-25T11:31:30.989Z,14.47
2018-11-25T11:36:34.753Z,16.80
2018-11-25T11:41:39.185Z,12.73
2018-11-25T11:46:42.864Z,12.67
2018-11-25T11:51:46.516Z,12.20
2018-11-25T11:56:50.904Z,12.50
2018-11-25T12:01:54.447Z,10.70
2018-11-25T12:06:59.215Z,11.50
2018-11-25T12:12:02.751Z,12.00
2018-11-25T12:17:06.587Z,15.17
2018-11-25T12:22:10.278Z,14.93
2018-11-25T12:27:14.080Z,15.47
2018-11-25T12:32:17.962Z,14.40
2018-11-25T12:37:21.719Z,13.77
2018-11-25T12:42:25.713Z,13.60
2018-11-25T12:47:29.845Z,12.50
2018-11-25T12:52:33.554Z,15.13
2018-11-25T12:57:37.189Z,15.13
2018-11-25T13:02:40.844Z,15.70
2018-11-25T13:07:44.609Z,14.23
2018-11-25T13:12:48.570Z,16.23
2018-11-25T13:17:52.051Z,14.57
2018-11-25T13:22:55.775Z,17.93
2018-11-25T13:27:59.873Z,18.53
2018-11-25T13:33:04.118Z,22.70
2018-11-25T13:38:07.968Z,19.77
2018-11-25T13:43:11.588Z,19.40
2018-11-25T13:48:15.292Z,14.37
2018-11-25T13:53:18.943Z,22.17
2018-11-25T13:58:22.429Z,20.07
2018-11-25T14:03:29.032Z,16.27
2018-11-25T14:08:32.777Z,15.33
2018-11-25T14:13:36.571Z,15.93
2018-11-25T14:18:40.259Z,15.13
2018-11-25T14:23:43.976Z,15.07
2018-11-25T14:28:48.128Z,13.37
2018-11-25T14:33:51.747Z,21.83
2018-11-25T14:38:58.206Z,20.43
2018-11-25T14:44:01.753Z,14.63
2018-11-25T14:49:05.529Z,20.13
2018-11-25T14:54:09.318Z,17.63
2018-11-25T14:59:12.952Z,15.93
2018-11-25T15:04:16.455Z,32.43
2018-11-25T15:09:21.097Z,14.70
2018-11-25T15:14:24.496Z,13.33
2018-11-25T15:19:28.928Z,13.07
2018-11-25T15:24:32.672Z,10.33
2018-11-25T15:29:36.214Z,12.53
2018-11-25T15:34:39.831Z,20.93
2018-11-25T15:39:43.203Z,11.80
2018-11-25T15:44:46.980Z,11.07
2018-11-25T15:49:50.601Z,13.00
2018-11-25T15:54:54.303Z,13.25
2018-11-25T15:59:57.809Z,14.87
2018-11-25T16:05:01.343Z,14.17
2018-11-25T16:10:08.773Z,14.60
2018-11-25T16:15:13.753Z,15.83
2018-11-25T16:20:18.455Z,15.87
2018-11-25T16:25:24.865Z,15.93
2018-11-25T16:30:28.204Z,13.77
2018-11-25T16:35:31.613Z,13.83
2018-11-25T16:40:35.064Z,13.23
2018-11-25T16:45:38.833Z,14.07
2018-11-25T16:50:42.173Z,12.97
2018-11-25T16:55:45.977Z,14.70
2018-11-25T17:00:49.484Z,16.30
2018-11-25T17:05:53.618Z,17.97
2018-11-25T17:10:57.434Z,18.07
2018-11-25T17:16:01.023Z,14.57
2018-11-25T17:21:04.574Z,16.37
2018-11-25T17:26:08.245Z,17.57
2018-11-25T17:31:11.765Z,16.53
2018-11-25T17:36:15.365Z,14.87
2018-11-25T17:41:19.002Z,16.80
2018-11-25T17:46:22.741Z,17.30
2018-11-25T17:51:26.455Z,17.87
2018-11-25T17:56:30.171Z,18.97
2018-11-25T18:01:33.748Z,18.57
2018-11-25T18:06:37.511Z,22.17
2018-11-25T18:11:41.245Z,22.53
2018-11-25T18:16:44.835Z,20.87
2018-11-25T18:21:49.886Z,21.13
2018-11-25T18:26:53.641Z,22.73
2018-11-25T18:31:57.264Z,23.43
2018-11-25T18:37:00.934Z,23.83
2018-11-25T18:42:05.101Z,25.17
2018-11-25T18:47:08.849Z,22.03
2018-11-25T18:52:12.575Z,23.37
2018-11-25T18:57:16.128Z,21.27
2018-11-25T19:02:23.478Z,22.07
2018-11-25T19:07:33.802Z,22.00
2018-11-25T19:12:44.259Z,24.07
2018-11-25T19:17:59.308Z,22.00
2018-11-25T19:23:06.081Z,25.23
2018-11-25T19:28:14.253Z,23.47
2018-11-25T19:33:18.101Z,25.37
2018-11-25T19:38:23.614Z,23.73
2018-11-25T19:43:27.606Z,22.30
2018-11-25T19:48:31.888Z,23.50
2018-11-25T19:53:35.724Z,25.03
2018-11-25T19:58:39.641Z,23.53
2018-11-25T20:03:43.420Z,27.40
2018-11-25T20:08:47.339Z,22.63
2018-11-25T20:13:51.268Z,23.57
2018-11-25T20:18:55.894Z,27.17
2018-11-25T20:23:59.737Z,28.53
2018-11-25T20:29:03.332Z,30.40
2018-11-25T20:34:07.070Z,29.83
2018-11-25T20:39:16.270Z,27.80
2018-11-25T20:44:19.906Z,31.93
2018-11-25T20:49:24.028Z,31.67
2018-11-25T20:54:27.780Z,30.60
2018-11-25T20:59:31.763Z,30.37
2018-11-25T21:04:35.353Z,29.23
2018-11-25T21:09:39.008Z,30.77
2018-11-25T21:14:42.671Z,29.67
2018-11-25T21:19:46.900Z,29.57
2018-11-25T21:24:50.624Z,30.67
2018-11-25T21:29:55.589Z,29.60
2018-11-25T21:35:02.072Z,30.00
2018-11-25T21:40:11.670Z,28.57
2018-11-25T21:45:18.157Z,28.70
2018-11-25T21:50:37.445Z,33.30
2018-11-25T21:56:01.590Z,33.00
2018-11-25T22:01:33.790Z,29.97
2018-11-25T22:07:03.171Z,32.00
2018-11-25T22:12:11.642Z,29.90
2018-11-25T22:17:15.453Z,28.50
2018-11-25T22:22:20.777Z,30.27
2018-11-25T22:27:25.770Z,33.13
2018-11-25T22:32:29.678Z,29.73
2018-11-25T22:37:38.020Z,32.27
2018-11-25T22:42:47.554Z,28.80
2018-11-25T22:47:53.397Z,29.67
2018-11-25T22:52:57.399Z,32.77
2018-11-25T22:58:01.749Z,29.27
2018-11-25T23:03:06.622Z,32.33
2018-11-25T23:08:10.379Z,36.07
2018-11-25T23:13:13.966Z,33.53
2018-11-25T23:18:17.468Z,33.43
2018-11-25T23:23:21.024Z,31.03
2018-11-25T23:28:24.524Z,33.93
2018-11-25T23:33:28.146Z,36.63
2018-11-25T23:38:31.862Z,34.00
2018-11-25T23:43:35.567Z,34.60
2018-11-25T23:48:39.192Z,36.20
2018-11-25T23:53:42.829Z,36.20
2018-11-25T23:58:46.454Z,38.13
